sensor_id;sensor_type;location;lat;lon;timestamp;P1;durP1;ratioP1;P2;durP2;ratioP2
3309;SDS011;1667;53.238;10.394;2023-05-07T00:03:03;3.60;;;3.30;;
3309;SDS011;1667;53.238;10.394;2023-05-07T00:08:03;5.13;;;4.00;;
3309;SDS011;1667;53.238;10.394;2023-05-07T00:13:02;6.30;;;4.20;;
3309;SDS011;1667;53.238;10.394;2023-05-07T00:18:01;6.50;;;5.30;;
3309;SDS011;1667;53.238;10.394;2023-05-07T00:23:00;6.13;;;4.90;;
3309;SDS011;1667;53.238;10.394;2023-05-07T00:27:59;4.47;;;3.97;;
3309;SDS011;1667;53.238;10.394;2023-05-07T00:33:00;5.60;;;4.50;;
3309;SDS011;1667;53.238;10.394;2023-05-07T00:37:59;4.50;;;3.80;;
3309;SDS011;1667;53.238;10.394;2023-05-07T00:42:59;7.27;;;5.27;;
3309;SDS011;1667;53.238;10.394;2023-05-07T00:47:58;5.87;;;4.63;;
3309;SDS011;1667;53.238;10.394;2023-05-07T00:52:58;4.47;;;4.03;;
3309;SDS011;1667;53.238;10.394;2023-05-07T00:57:59;4.70;;;3.03;;
3309;SDS011;1667;53.238;10.394;2023-05-07T01:02:57;5.80;;;4.53;;
3309;SDS011;1667;53.238;10.394;2023-05-07T01:07:56;5.30;;;3.73;;
3309;SDS011;1667;53.238;10.394;2023-05-07T01:12:57;7.00;;;5.57;;
3309;SDS011;1667;53.238;10.394;2023-05-07T01:17:58;7.20;;;5.83;;
3309;SDS011;1667;53.238;10.394;2023-05-07T01:23:04;5.50;;;4.30;;
3309;SDS011;1667;53.238;10.394;2023-05-07T01:28:03;5.57;;;3.47;;
3309;SDS011;1667;53.238;10.394;2023-05-07T01:33:06;6.40;;;4.37;;
3309;SDS011;1667;53.238;10.394;2023-05-07T01:38:09;6.30;;;4.63;;
3309;SDS011;1667;53.238;10.394;2023-05-07T01:43:08;5.47;;;4.33;;
3309;SDS011;1667;53.238;10.394;2023-05-07T01:48:09;6.50;;;5.23;;
3309;SDS011;1667;53.238;10.394;2023-05-07T01:53:10;3.77;;;3.17;;
3309;SDS011;1667;53.238;10.394;2023-05-07T01:58:08;7.93;;;7.00;;
3309;SDS011;1667;53.238;10.394;2023-05-07T02:03:07;6.83;;;5.53;;
3309;SDS011;1667;53.238;10.394;2023-05-07T02:08:18;5.77;;;3.77;;
3309;SDS011;1667;53.238;10.394;2023-05-07T02:13:17;8.93;;;5.43;;
3309;SDS011;1667;53.238;10.394;2023-05-07T02:18:16;7.30;;;5.07;;
3309;SDS011;1667;53.238;10.394;2023-05-07T02:23:15;8.10;;;5.87;;
3309;SDS011;1667;53.238;10.394;2023-05-07T02:28:15;7.60;;;5.10;;
3309;SDS011;1667;53.238;10.394;2023-05-07T02:33:27;8.00;;;5.27;;
3309;SDS011;1667;53.238;10.394;2023-05-07T02:38:27;8.47;;;6.77;;
3309;SDS011;1667;53.238;10.394;2023-05-07T02:43:27;6.33;;;4.47;;
3309;SDS011;1667;53.238;10.394;2023-05-07T02:48:26;9.17;;;7.00;;
3309;SDS011;1667;53.238;10.394;2023-05-07T02:53:25;8.20;;;5.43;;
3309;SDS011;1667;53.238;10.394;2023-05-07T02:58:24;9.90;;;6.23;;
3309;SDS011;1667;53.238;10.394;2023-05-07T03:03:24;6.63;;;5.13;;
3309;SDS011;1667;53.238;10.394;2023-05-07T03:08:22;7.63;;;4.50;;
3309;SDS011;1667;53.238;10.394;2023-05-07T03:13:21;5.47;;;4.97;;
3309;SDS011;1667;53.238;10.394;2023-05-07T03:18:21;8.30;;;5.30;;
3309;SDS011;1667;53.238;10.394;2023-05-07T03:23:21;8.80;;;4.37;;
3309;SDS011;1667;53.238;10.394;2023-05-07T03:28:20;9.17;;;4.00;;
3309;SDS011;1667;53.238;10.394;2023-05-07T03:33:24;7.77;;;4.80;;
3309;SDS011;1667;53.238;10.394;2023-05-07T03:38:26;9.10;;;5.03;;
3309;SDS011;1667;53.238;10.394;2023-05-07T03:43:26;8.53;;;6.40;;
3309;SDS011;1667;53.238;10.394;2023-05-07T03:48:31;6.40;;;4.57;;
3309;SDS011;1667;53.238;10.394;2023-05-07T03:53:31;7.40;;;5.00;;
3309;SDS011;1667;53.238;10.394;2023-05-07T03:58:30;6.87;;;5.50;;
3309;SDS011;1667;53.238;10.394;2023-05-07T04:03:34;6.90;;;4.60;;
3309;SDS011;1667;53.238;10.394;2023-05-07T04:08:35;5.73;;;3.70;;
3309;SDS011;1667;53.238;10.394;2023-05-07T04:13:35;6.90;;;6.00;;
3309;SDS011;1667;53.238;10.394;2023-05-07T04:18:35;9.67;;;6.50;;
3309;SDS011;1667;53.238;10.394;2023-05-07T04:23:36;8.90;;;4.80;;
3309;SDS011;1667;53.238;10.394;2023-05-07T04:28:38;7.80;;;5.13;;
3309;SDS011;1667;53.238;10.394;2023-05-07T04:33:37;9.40;;;7.60;;
3309;SDS011;1667;53.238;10.394;2023-05-07T04:38:40;10.73;;;5.97;;
3309;SDS011;1667;53.238;10.394;2023-05-07T04:43:39;6.90;;;4.20;;
3309;SDS011;1667;53.238;10.394;2023-05-07T04:48:40;6.23;;;4.20;;
3309;SDS011;1667;53.238;10.394;2023-05-07T04:53:41;10.10;;;6.17;;
3309;SDS011;1667;53.238;10.394;2023-05-07T04:58:40;9.50;;;5.77;;
3309;SDS011;1667;53.238;10.394;2023-05-07T05:03:39;7.13;;;4.73;;
3309;SDS011;1667;53.238;10.394;2023-05-07T05:08:38;8.07;;;4.63;;
3309;SDS011;1667;53.238;10.394;2023-05-07T05:13:40;8.67;;;6.13;;
3309;SDS011;1667;53.238;10.394;2023-05-07T05:18:44;9.57;;;6.70;;
3309;SDS011;1667;53.238;10.394;2023-05-07T05:23:45;9.67;;;5.80;;
3309;SDS011;1667;53.238;10.394;2023-05-07T05:28:49;8.60;;;5.80;;
3309;SDS011;1667;53.238;10.394;2023-05-07T05:33:50;6.70;;;5.33;;
3309;SDS011;1667;53.238;10.394;2023-05-07T05:38:49;5.90;;;4.93;;
3309;SDS011;1667;53.238;10.394;2023-05-07T05:43:48;7.60;;;5.20;;
3309;SDS011;1667;53.238;10.394;2023-05-07T05:55:37;4.63;;;3.90;;
3309;SDS011;1667;53.238;10.394;2023-05-07T06:06:30;5.03;;;3.90;;
3309;SDS011;1667;53.238;10.394;2023-05-07T06:11:31;4.10;;;3.50;;
3309;SDS011;1667;53.238;10.394;2023-05-07T06:16:30;6.03;;;3.90;;
3309;SDS011;1667;53.238;10.394;2023-05-07T06:21:30;6.50;;;5.10;;
3309;SDS011;1667;53.238;10.394;2023-05-07T06:26:29;8.70;;;6.00;;
3309;SDS011;1667;53.238;10.394;2023-05-07T06:31:29;5.93;;;4.17;;
3309;SDS011;1667;53.238;10.394;2023-05-07T06:36:37;5.93;;;4.07;;
3309;SDS011;1667;53.238;10.394;2023-05-07T06:41:54;7.30;;;4.30;;
3309;SDS011;1667;53.238;10.394;2023-05-07T06:46:58;7.70;;;5.07;;
3309;SDS011;1667;53.238;10.394;2023-05-07T06:51:58;6.60;;;5.17;;
3309;SDS011;1667;53.238;10.394;2023-05-07T06:56:58;8.67;;;5.10;;
3309;SDS011;1667;53.238;10.394;2023-05-07T07:02:00;6.53;;;4.30;;
3309;SDS011;1667;53.238;10.394;2023-05-07T07:07:00;6.73;;;4.23;;
3309;SDS011;1667;53.238;10.394;2023-05-07T07:11:59;7.27;;;5.33;;
3309;SDS011;1667;53.238;10.394;2023-05-07T07:16:59;5.63;;;5.13;;
3309;SDS011;1667;53.238;10.394;2023-05-07T07:21:57;7.60;;;4.97;;
3309;SDS011;1667;53.238;10.394;2023-05-07T07:26:58;6.50;;;3.53;;
3309;SDS011;1667;53.238;10.394;2023-05-07T07:31:58;5.17;;;4.40;;
3309;SDS011;1667;53.238;10.394;2023-05-07T07:36:57;7.53;;;4.70;;
3309;SDS011;1667;53.238;10.394;2023-05-07T07:42:04;4.80;;;3.90;;
3309;SDS011;1667;53.238;10.394;2023-05-07T07:47:03;4.37;;;3.27;;
3309;SDS011;1667;53.238;10.394;2023-05-07T07:52:02;4.93;;;3.60;;
3309;SDS011;1667;53.238;10.394;2023-05-07T07:57:06;2.57;;;2.10;;
3309;SDS011;1667;53.238;10.394;2023-05-07T08:02:05;4.40;;;3.80;;
3309;SDS011;1667;53.238;10.394;2023-05-07T08:07:05;5.50;;;3.97;;
3309;SDS011;1667;53.238;10.394;2023-05-07T08:18:32;6.30;;;4.70;;
3309;SDS011;1667;53.238;10.394;2023-05-07T08:23:32;5.03;;;3.97;;
3309;SDS011;1667;53.238;10.394;2023-05-07T08:28:32;4.60;;;3.53;;
3309;SDS011;1667;53.238;10.394;2023-05-07T08:33:33;5.40;;;4.07;;
3309;SDS011;1667;53.238;10.394;2023-05-07T08:38:32;5.97;;;4.97;;
3309;SDS011;1667;53.238;10.394;2023-05-07T08:43:31;7.40;;;4.20;;
3309;SDS011;1667;53.238;10.394;2023-05-07T08:48:33;8.23;;;5.67;;
3309;SDS011;1667;53.238;10.394;2023-05-07T08:53:40;6.47;;;4.67;;
3309;SDS011;1667;53.238;10.394;2023-05-07T08:58:42;6.73;;;5.43;;
3309;SDS011;1667;53.238;10.394;2023-05-07T09:03:42;8.57;;;6.60;;
3309;SDS011;1667;53.238;10.394;2023-05-07T09:08:48;6.50;;;4.70;;
3309;SDS011;1667;53.238;10.394;2023-05-07T09:13:49;5.50;;;5.00;;
3309;SDS011;1667;53.238;10.394;2023-05-07T09:18:54;6.20;;;5.13;;
3309;SDS011;1667;53.238;10.394;2023-05-07T09:23:53;7.40;;;5.40;;
3309;SDS011;1667;53.238;10.394;2023-05-07T09:29:01;5.33;;;4.63;;
3309;SDS011;1667;53.238;10.394;2023-05-07T09:34:01;6.70;;;4.97;;
3309;SDS011;1667;53.238;10.394;2023-05-07T09:39:05;6.03;;;4.40;;
3309;SDS011;1667;53.238;10.394;2023-05-07T09:44:03;8.07;;;6.07;;
3309;SDS011;1667;53.238;10.394;2023-05-07T09:49:20;7.43;;;5.07;;
3309;SDS011;1667;53.238;10.394;2023-05-07T09:54:29;7.63;;;5.80;;
3309;SDS011;1667;53.238;10.394;2023-05-07T09:59:32;8.57;;;4.13;;
3309;SDS011;1667;53.238;10.394;2023-05-07T10:04:35;6.87;;;5.00;;
3309;SDS011;1667;53.238;10.394;2023-05-07T10:09:34;7.53;;;4.80;;
3309;SDS011;1667;53.238;10.394;2023-05-07T10:14:40;5.90;;;5.27;;
3309;SDS011;1667;53.238;10.394;2023-05-07T10:19:40;6.67;;;5.40;;
3309;SDS011;1667;53.238;10.394;2023-05-07T10:24:41;4.33;;;4.00;;
3309;SDS011;1667;53.238;10.394;2023-05-07T10:30:00;5.20;;;4.47;;
3309;SDS011;1667;53.238;10.394;2023-05-07T10:35:13;7.60;;;5.20;;
3309;SDS011;1667;53.238;10.394;2023-05-07T10:40:17;6.83;;;5.70;;
3309;SDS011;1667;53.238;10.394;2023-05-07T10:45:20;6.80;;;4.90;;
3309;SDS011;1667;53.238;10.394;2023-05-07T10:50:22;6.07;;;4.90;;
3309;SDS011;1667;53.238;10.394;2023-05-07T10:55:27;5.13;;;3.90;;
3309;SDS011;1667;53.238;10.394;2023-05-07T11:00:41;9.30;;;4.97;;
3309;SDS011;1667;53.238;10.394;2023-05-07T11:05:49;4.43;;;4.03;;
3309;SDS011;1667;53.238;10.394;2023-05-07T11:11:45;6.93;;;4.40;;
3309;SDS011;1667;53.238;10.394;2023-05-07T11:16:52;4.57;;;4.10;;
3309;SDS011;1667;53.238;10.394;2023-05-07T11:22:03;4.90;;;3.93;;
3309;SDS011;1667;53.238;10.394;2023-05-07T11:27:10;5.07;;;4.60;;
3309;SDS011;1667;53.238;10.394;2023-05-07T11:32:09;4.13;;;3.30;;
3309;SDS011;1667;53.238;10.394;2023-05-07T11:37:18;5.80;;;4.03;;
3309;SDS011;1667;53.238;10.394;2023-05-07T11:42:25;3.47;;;3.17;;
3309;SDS011;1667;53.238;10.394;2023-05-07T11:47:25;6.60;;;4.10;;
3309;SDS011;1667;53.238;10.394;2023-05-07T11:52:25;3.83;;;3.50;;
3309;SDS011;1667;53.238;10.394;2023-05-07T11:57:24;4.13;;;3.50;;
3309;SDS011;1667;53.238;10.394;2023-05-07T12:02:23;3.33;;;3.03;;
3309;SDS011;1667;53.238;10.394;2023-05-07T12:07:23;4.50;;;3.73;;
3309;SDS011;1667;53.238;10.394;2023-05-07T12:12:23;3.90;;;3.23;;
3309;SDS011;1667;53.238;10.394;2023-05-07T12:17:23;8.17;;;3.30;;
3309;SDS011;1667;53.238;10.394;2023-05-07T12:22:22;3.10;;;2.80;;
3309;SDS011;1667;53.238;10.394;2023-05-07T12:27:21;3.50;;;3.20;;
3309;SDS011;1667;53.238;10.394;2023-05-07T12:32:21;4.00;;;3.20;;
3309;SDS011;1667;53.238;10.394;2023-05-07T12:37:23;3.00;;;2.47;;
3309;SDS011;1667;53.238;10.394;2023-05-07T12:42:26;3.00;;;2.70;;
3309;SDS011;1667;53.238;10.394;2023-05-07T12:47:26;2.50;;;2.10;;
3309;SDS011;1667;53.238;10.394;2023-05-07T12:52:25;2.30;;;2.17;;
3309;SDS011;1667;53.238;10.394;2023-05-07T12:57:23;4.40;;;3.67;;
3309;SDS011;1667;53.238;10.394;2023-05-07T13:02:22;2.50;;;2.30;;
3309;SDS011;1667;53.238;10.394;2023-05-07T13:07:32;2.57;;;2.37;;
3309;SDS011;1667;53.238;10.394;2023-05-07T13:17:57;2.57;;;2.37;;
3309;SDS011;1667;53.238;10.394;2023-05-07T13:22:56;4.20;;;1.50;;
3309;SDS011;1667;53.238;10.394;2023-05-07T13:27:54;2.03;;;1.83;;
3309;SDS011;1667;53.238;10.394;2023-05-07T13:33:08;2.07;;;1.90;;
3309;SDS011;1667;53.238;10.394;2023-05-07T13:38:06;2.10;;;1.90;;
3309;SDS011;1667;53.238;10.394;2023-05-07T13:48:33;2.30;;;2.20;;
3309;SDS011;1667;53.238;10.394;2023-05-07T13:53:31;2.50;;;2.30;;
3309;SDS011;1667;53.238;10.394;2023-05-07T13:58:30;2.80;;;2.60;;
3309;SDS011;1667;53.238;10.394;2023-05-07T14:03:29;2.20;;;2.10;;
3309;SDS011;1667;53.238;10.394;2023-05-07T14:08:30;2.50;;;2.30;;
3309;SDS011;1667;53.238;10.394;2023-05-07T14:13:28;2.07;;;1.87;;
3309;SDS011;1667;53.238;10.394;2023-05-07T14:18:27;2.00;;;1.70;;
3309;SDS011;1667;53.238;10.394;2023-05-07T14:23:26;1.80;;;1.70;;
3309;SDS011;1667;53.238;10.394;2023-05-07T14:28:26;2.77;;;1.90;;
3309;SDS011;1667;53.238;10.394;2023-05-07T14:33:25;2.87;;;2.67;;
3309;SDS011;1667;53.238;10.394;2023-05-07T14:38:24;2.13;;;1.90;;
3309;SDS011;1667;53.238;10.394;2023-05-07T14:43:22;2.90;;;2.10;;
3309;SDS011;1667;53.238;10.394;2023-05-07T14:48:22;2.17;;;1.97;;
3309;SDS011;1667;53.238;10.394;2023-05-07T14:53:21;2.27;;;2.07;;
3309;SDS011;1667;53.238;10.394;2023-05-07T14:58:20;2.67;;;2.13;;
3309;SDS011;1667;53.238;10.394;2023-05-07T15:03:18;2.60;;;2.40;;
3309;SDS011;1667;53.238;10.394;2023-05-07T15:08:18;1.60;;;1.50;;
3309;SDS011;1667;53.238;10.394;2023-05-07T15:13:17;1.63;;;1.53;;
3309;SDS011;1667;53.238;10.394;2023-05-07T15:18:15;2.17;;;2.07;;
3309;SDS011;1667;53.238;10.394;2023-05-07T15:23:19;2.30;;;2.13;;
3309;SDS011;1667;53.238;10.394;2023-05-07T15:28:19;1.90;;;1.70;;
3309;SDS011;1667;53.238;10.394;2023-05-07T15:33:17;1.70;;;1.60;;
3309;SDS011;1667;53.238;10.394;2023-05-07T15:38:16;2.30;;;2.10;;
3309;SDS011;1667;53.238;10.394;2023-05-07T15:43:15;1.60;;;1.50;;
3309;SDS011;1667;53.238;10.394;2023-05-07T15:48:14;1.90;;;1.70;;
3309;SDS011;1667;53.238;10.394;2023-05-07T15:53:13;4.00;;;1.90;;
3309;SDS011;1667;53.238;10.394;2023-05-07T15:58:11;1.90;;;1.80;;
3309;SDS011;1667;53.238;10.394;2023-05-07T16:03:11;1.57;;;1.47;;
3309;SDS011;1667;53.238;10.394;2023-05-07T16:08:10;2.27;;;2.07;;
3309;SDS011;1667;53.238;10.394;2023-05-07T16:13:08;2.70;;;1.83;;
3309;SDS011;1667;53.238;10.394;2023-05-07T16:18:07;1.60;;;1.50;;
3309;SDS011;1667;53.238;10.394;2023-05-07T16:23:07;1.70;;;1.60;;
3309;SDS011;1667;53.238;10.394;2023-05-07T16:28:06;2.10;;;1.87;;
3309;SDS011;1667;53.238;10.394;2023-05-07T16:33:04;2.57;;;2.37;;
3309;SDS011;1667;53.238;10.394;2023-05-07T16:38:03;4.73;;;1.90;;
3309;SDS011;1667;53.238;10.394;2023-05-07T16:43:07;2.37;;;2.10;;
3309;SDS011;1667;53.238;10.394;2023-05-07T16:48:06;2.40;;;1.90;;
3309;SDS011;1667;53.238;10.394;2023-05-07T16:53:05;1.67;;;1.57;;
3309;SDS011;1667;53.238;10.394;2023-05-07T16:58:04;2.20;;;2.00;;
3309;SDS011;1667;53.238;10.394;2023-05-07T17:03:04;2.17;;;1.70;;
3309;SDS011;1667;53.238;10.394;2023-05-07T17:08:03;1.93;;;1.67;;
3309;SDS011;1667;53.238;10.394;2023-05-07T17:13:01;2.63;;;1.93;;
3309;SDS011;1667;53.238;10.394;2023-05-07T17:18:00;2.10;;;1.80;;
3309;SDS011;1667;53.238;10.394;2023-05-07T17:23:00;2.90;;;2.10;;
3309;SDS011;1667;53.238;10.394;2023-05-07T17:27:59;2.33;;;1.87;;
3309;SDS011;1667;53.238;10.394;2023-05-07T17:32:57;2.33;;;2.17;;
3309;SDS011;1667;53.238;10.394;2023-05-07T17:38:16;2.20;;;1.83;;
3309;SDS011;1667;53.238;10.394;2023-05-07T17:43:15;2.33;;;2.23;;
3309;SDS011;1667;53.238;10.394;2023-05-07T17:48:13;1.90;;;1.80;;
3309;SDS011;1667;53.238;10.394;2023-05-07T17:53:13;1.90;;;1.80;;
3309;SDS011;1667;53.238;10.394;2023-05-07T17:58:13;1.93;;;1.60;;
3309;SDS011;1667;53.238;10.394;2023-05-07T18:03:11;2.13;;;2.03;;
3309;SDS011;1667;53.238;10.394;2023-05-07T18:08:09;2.20;;;1.93;;
3309;SDS011;1667;53.238;10.394;2023-05-07T18:13:08;2.10;;;1.90;;
3309;SDS011;1667;53.238;10.394;2023-05-07T18:18:08;1.93;;;1.80;;
3309;SDS011;1667;53.238;10.394;2023-05-07T18:23:07;2.10;;;2.00;;
3309;SDS011;1667;53.238;10.394;2023-05-07T18:28:05;2.27;;;1.80;;
3309;SDS011;1667;53.238;10.394;2023-05-07T18:33:04;3.53;;;2.10;;
3309;SDS011;1667;53.238;10.394;2023-05-07T18:38:04;1.93;;;1.83;;
3309;SDS011;1667;53.238;10.394;2023-05-07T18:48:52;2.07;;;1.77;;
3309;SDS011;1667;53.238;10.394;2023-05-07T18:53:52;2.00;;;1.90;;
3309;SDS011;1667;53.238;10.394;2023-05-07T18:58:50;2.10;;;2.00;;
3309;SDS011;1667;53.238;10.394;2023-05-07T19:03:49;2.33;;;1.70;;
3309;SDS011;1667;53.238;10.394;2023-05-07T19:08:48;2.03;;;1.90;;
3309;SDS011;1667;53.238;10.394;2023-05-07T19:13:48;2.43;;;2.23;;
3309;SDS011;1667;53.238;10.394;2023-05-07T19:18:46;2.33;;;2.23;;
3309;SDS011;1667;53.238;10.394;2023-05-07T19:23:45;2.47;;;2.27;;
3309;SDS011;1667;53.238;10.394;2023-05-07T19:28:47;3.07;;;2.30;;
3309;SDS011;1667;53.238;10.394;2023-05-07T19:34:07;2.90;;;2.70;;
3309;SDS011;1667;53.238;10.394;2023-05-07T19:39:06;3.73;;;2.83;;
3309;SDS011;1667;53.238;10.394;2023-05-07T19:44:07;6.53;;;2.70;;
3309;SDS011;1667;53.238;10.394;2023-05-07T19:49:05;3.40;;;3.10;;
3309;SDS011;1667;53.238;10.394;2023-05-07T19:54:07;2.77;;;2.57;;
3309;SDS011;1667;53.238;10.394;2023-05-07T19:59:07;3.27;;;2.83;;
3309;SDS011;1667;53.238;10.394;2023-05-07T20:04:05;2.37;;;2.17;;
3309;SDS011;1667;53.238;10.394;2023-05-07T20:09:04;3.20;;;2.90;;
3309;SDS011;1667;53.238;10.394;2023-05-07T20:14:07;2.80;;;2.60;;
3309;SDS011;1667;53.238;10.394;2023-05-07T20:19:06;6.20;;;2.63;;
3309;SDS011;1667;53.238;10.394;2023-05-07T20:24:04;3.00;;;2.80;;
3309;SDS011;1667;53.238;10.394;2023-05-07T20:29:04;2.73;;;2.53;;
3309;SDS011;1667;53.238;10.394;2023-05-07T20:34:04;2.93;;;2.73;;
3309;SDS011;1667;53.238;10.394;2023-05-07T20:39:03;2.60;;;2.40;;
3309;SDS011;1667;53.238;10.394;2023-05-07T20:44:01;3.90;;;2.90;;
3309;SDS011;1667;53.238;10.394;2023-05-07T20:49:00;3.17;;;2.90;;
3309;SDS011;1667;53.238;10.394;2023-05-07T20:54:00;3.13;;;2.90;;
3309;SDS011;1667;53.238;10.394;2023-05-07T20:58:58;3.60;;;3.03;;
3309;SDS011;1667;53.238;10.394;2023-05-07T21:03:56;2.70;;;2.50;;
3309;SDS011;1667;53.238;10.394;2023-05-07T21:15:45;2.80;;;2.60;;
3309;SDS011;1667;53.238;10.394;2023-05-07T21:20:43;2.70;;;2.50;;
3309;SDS011;1667;53.238;10.394;2023-05-07T21:25:42;2.67;;;2.47;;
3309;SDS011;1667;53.238;10.394;2023-05-07T21:30:42;2.50;;;2.30;;
3309;SDS011;1667;53.238;10.394;2023-05-07T21:35:42;3.40;;;2.80;;
3309;SDS011;1667;53.238;10.394;2023-05-07T21:40:41;2.10;;;1.97;;
3309;SDS011;1667;53.238;10.394;2023-05-07T21:45:39;2.20;;;2.03;;
3309;SDS011;1667;53.238;10.394;2023-05-07T21:50:39;3.03;;;2.50;;
3309;SDS011;1667;53.238;10.394;2023-05-07T21:55:38;2.87;;;2.67;;
3309;SDS011;1667;53.238;10.394;2023-05-07T22:00:36;2.30;;;2.10;;
3309;SDS011;1667;53.238;10.394;2023-05-07T22:05:35;3.67;;;2.70;;
3309;SDS011;1667;53.238;10.394;2023-05-07T22:10:34;2.80;;;2.57;;
3309;SDS011;1667;53.238;10.394;2023-05-07T22:15:33;2.30;;;2.20;;
3309;SDS011;1667;53.238;10.394;2023-05-07T22:20:45;2.20;;;2.10;;
3309;SDS011;1667;53.238;10.394;2023-05-07T22:25:45;2.50;;;2.03;;
3309;SDS011;1667;53.238;10.394;2023-05-07T22:30:43;2.30;;;2.10;;
3309;SDS011;1667;53.238;10.394;2023-05-07T22:35:42;4.07;;;2.47;;
3309;SDS011;1667;53.238;10.394;2023-05-07T22:40:40;2.80;;;2.60;;
3309;SDS011;1667;53.238;10.394;2023-05-07T22:45:40;2.60;;;2.40;;
3309;SDS011;1667;53.238;10.394;2023-05-07T22:50:39;2.50;;;2.30;;
3309;SDS011;1667;53.238;10.394;2023-05-07T22:55:37;2.43;;;2.03;;
3309;SDS011;1667;53.238;10.394;2023-05-07T23:00:36;4.90;;;2.43;;
3309;SDS011;1667;53.238;10.394;2023-05-07T23:05:36;3.77;;;2.47;;
3309;SDS011;1667;53.238;10.394;2023-05-07T23:10:35;2.70;;;2.50;;
3309;SDS011;1667;53.238;10.394;2023-05-07T23:15:33;2.90;;;2.30;;
3309;SDS011;1667;53.238;10.394;2023-05-07T23:20:32;2.30;;;2.20;;
3309;SDS011;1667;53.238;10.394;2023-05-07T23:25:32;3.30;;;2.63;;
3309;SDS011;1667;53.238;10.394;2023-05-07T23:30:31;2.90;;;2.37;;
3309;SDS011;1667;53.238;10.394;2023-05-07T23:35:30;2.73;;;2.40;;
3309;SDS011;1667;53.238;10.394;2023-05-07T23:40:29;2.77;;;2.57;;
3309;SDS011;1667;53.238;10.394;2023-05-07T23:45:28;2.60;;;2.37;;
3309;SDS011;1667;53.238;10.394;2023-05-07T23:50:27;3.00;;;2.70;;
3309;SDS011;1667;53.238;10.394;2023-05-07T23:55:25;3.27;;;2.97;;
